createdAt,value
2023-05-06T00:00:42.290Z,157.30
2023-05-06T00:03:49.960Z,180.50
2023-05-06T00:06:57.434Z,167.70
2023-05-06T00:10:05.883Z,205.00
2023-05-06T00:13:13.676Z,180.60
2023-05-06T00:16:20.778Z,189.90
2023-05-06T00:19:29.450Z,192.90
2023-05-06T00:22:36.432Z,220.00
2023-05-06T00:25:43.500Z,206.70
2023-05-06T00:28:51.996Z,169.40
2023-05-06T00:31:59.002Z,176.10
2023-05-06T00:35:05.952Z,180.60
2023-05-06T00:38:14.480Z,228.60
2023-05-06T00:41:21.375Z,239.90
2023-05-06T00:44:28.474Z,228.70
2023-05-06T00:47:35.494Z,253.80
2023-05-06T00:50:43.980Z,229.20
2023-05-06T00:53:51.229Z,189.30
2023-05-06T00:56:58.443Z,471.70
2023-05-06T01:00:07.009Z,229.60
2023-05-06T01:03:15.950Z,208.20
2023-05-06T01:06:23.740Z,206.50
2023-05-06T01:09:32.632Z,220.30
2023-05-06T01:12:39.670Z,211.00
2023-05-06T01:15:46.644Z,248.70
2023-05-06T01:18:55.134Z,240.10
2023-05-06T01:22:02.182Z,251.00
2023-05-06T01:25:09.560Z,234.70
2023-05-06T01:28:16.744Z,271.40
2023-05-06T01:31:25.163Z,234.80
2023-05-06T01:34:32.117Z,226.40
2023-05-06T01:37:39.147Z,220.80
2023-05-06T01:40:47.582Z,218.10
2023-05-06T01:43:54.672Z,220.80
2023-05-06T01:47:01.935Z,232.70
2023-05-06T01:50:10.521Z,242.80
2023-05-06T01:53:17.560Z,260.00
2023-05-06T01:56:24.879Z,254.00
2023-05-06T01:59:33.530Z,227.30
2023-05-06T02:02:40.736Z,233.10
2023-05-06T02:05:47.762Z,243.40
2023-05-06T02:08:56.058Z,276.40
2023-05-06T02:12:03.065Z,252.70
2023-05-06T02:15:10.159Z,270.30
2023-05-06T02:18:17.239Z,259.80
2023-05-06T02:21:25.646Z,249.20
2023-05-06T02:24:32.706Z,250.90
2023-05-06T02:27:39.833Z,250.10
2023-05-06T02:30:48.189Z,215.60
2023-05-06T02:33:55.333Z,232.90
2023-05-06T02:37:02.475Z,181.50
2023-05-06T02:40:11.009Z,159.40
2023-05-06T02:43:17.989Z,196.50
2023-05-06T02:46:25.134Z,199.60
2023-05-06T02:49:33.335Z,165.60
2023-05-06T02:52:40.317Z,191.70
2023-05-06T02:55:47.308Z,168.70
2023-05-06T02:58:54.551Z,141.80
2023-05-06T03:02:03.003Z,135.20
2023-05-06T03:05:10.158Z,142.40
2023-05-06T03:08:17.249Z,154.30
2023-05-06T03:11:25.590Z,190.60
2023-05-06T03:14:32.703Z,134.20
2023-05-06T03:17:39.637Z,152.80
2023-05-06T03:20:48.368Z,164.20
2023-05-06T03:23:55.428Z,156.30
2023-05-06T03:27:02.428Z,169.20
2023-05-06T03:30:10.720Z,188.10
2023-05-06T03:33:17.634Z,152.60
2023-05-06T03:36:24.516Z,185.10
2023-05-06T03:39:31.469Z,165.00
2023-05-06T03:42:39.694Z,167.30
2023-05-06T03:45:46.792Z,173.70
2023-05-06T03:48:53.760Z,153.90
2023-05-06T03:52:02.257Z,143.70
2023-05-06T03:55:09.353Z,157.50
2023-05-06T03:58:17.179Z,147.40
2023-05-06T04:01:25.577Z,122.60
2023-05-06T04:04:32.741Z,114.30
2023-05-06T04:07:40.044Z,125.30
2023-05-06T04:10:48.620Z,100.50
2023-05-06T04:13:56.000Z,101.70
2023-05-06T04:17:03.186Z,109.90
2023-05-06T04:20:10.678Z,109.10
2023-05-06T04:23:19.186Z,120.10
2023-05-06T04:26:26.391Z,118.90
2023-05-06T04:29:33.467Z,89.50
2023-05-06T04:32:42.272Z,107.80
2023-05-06T04:35:49.734Z,93.40
2023-05-06T04:38:56.928Z,96.70
2023-05-06T04:42:05.381Z,87.10
2023-05-06T04:45:13.347Z,98.80
2023-05-06T04:48:20.501Z,97.70
2023-05-06T04:51:28.965Z,104.40
2023-05-06T04:54:36.058Z,89.30
2023-05-06T04:57:43.252Z,87.50
2023-05-06T05:00:52.112Z,93.80
2023-05-06T05:03:59.254Z,88.00
2023-05-06T05:07:06.537Z,76.80
2023-05-06T05:10:14.426Z,78.80
2023-05-06T05:13:22.992Z,61.50
2023-05-06T05:16:30.160Z,68.50
2023-05-06T05:19:37.421Z,65.00
2023-05-06T05:22:46.092Z,54.50
2023-05-06T05:25:53.591Z,61.30
2023-05-06T05:29:00.621Z,64.00
2023-05-06T05:32:09.434Z,59.90
2023-05-06T05:35:16.549Z,57.60
2023-05-06T05:38:23.626Z,54.20
2023-05-06T05:41:32.130Z,51.60
2023-05-06T05:44:39.297Z,47.90
2023-05-06T05:47:47.034Z,40.70
2023-05-06T05:50:54.346Z,38.60
2023-05-06T05:54:03.089Z,44.10
2023-05-06T05:57:10.043Z,36.00
2023-05-06T06:00:18.928Z,35.90
2023-05-06T06:03:19.223Z,33.70
2023-05-06T06:06:26.471Z,28.70
2023-05-06T06:09:33.477Z,32.40
2023-05-06T06:12:42.057Z,27.60
2023-05-06T06:15:49.093Z,30.10
2023-05-06T06:18:56.654Z,33.30
2023-05-06T06:22:05.684Z,32.70
2023-05-06T06:25:15.014Z,30.00
2023-05-06T06:28:22.190Z,34.70
2023-05-06T06:31:29.508Z,32.70
2023-05-06T06:34:38.103Z,33.60
2023-05-06T06:37:45.394Z,32.70
2023-05-06T06:40:53.193Z,28.70
2023-05-06T06:44:02.216Z,28.10
2023-05-06T06:47:09.638Z,27.70
2023-05-06T06:50:16.815Z,27.10
2023-05-06T06:53:25.322Z,26.80
2023-05-06T06:56:32.331Z,26.00
2023-05-06T06:59:39.348Z,27.30
2023-05-06T07:02:47.782Z,24.00
2023-05-06T07:05:54.646Z,23.80
2023-05-06T07:09:01.803Z,24.60
2023-05-06T07:12:08.781Z,21.60
2023-05-06T07:15:17.203Z,22.10
2023-05-06T07:18:24.072Z,20.70
2023-05-06T07:21:30.884Z,20.90
2023-05-06T07:24:39.199Z,21.10
2023-05-06T07:27:46.155Z,23.70
2023-05-06T07:30:53.103Z,19.80
2023-05-06T07:34:01.449Z,21.70
2023-05-06T07:37:08.431Z,20.50
2023-05-06T07:40:15.442Z,20.40
2023-05-06T07:43:23.826Z,19.90
2023-05-06T07:46:31.011Z,21.80
2023-05-06T07:49:38.063Z,22.80
2023-05-06T07:52:45.182Z,19.90
2023-05-06T07:55:53.659Z,22.40
2023-05-06T07:59:00.582Z,21.90
2023-05-06T08:02:07.791Z,21.30
2023-05-06T08:05:16.210Z,18.50
2023-05-06T08:08:23.199Z,22.20
2023-05-06T08:11:30.193Z,19.40
2023-05-06T08:14:38.706Z,19.70
2023-05-06T08:17:45.912Z,14.60
2023-05-06T08:20:52.874Z,14.00
2023-05-06T08:24:01.420Z,15.70
2023-05-06T08:27:08.477Z,14.30
2023-05-06T08:30:15.527Z,13.10
2023-05-06T08:33:24.004Z,13.30
2023-05-06T08:36:31.132Z,14.10
2023-05-06T08:39:38.092Z,12.30
2023-05-06T08:42:45.020Z,11.30
2023-05-06T08:45:53.313Z,12.30
2023-05-06T08:49:00.161Z,12.00
2023-05-06T08:52:07.049Z,12.10
2023-05-06T08:55:15.382Z,12.00
2023-05-06T08:58:22.298Z,13.20
2023-05-06T09:01:29.423Z,12.50
2023-05-06T09:04:38.820Z,11.80
2023-05-06T09:07:46.374Z,11.20
2023-05-06T09:10:53.312Z,10.80
2023-05-06T09:14:02.240Z,10.80
2023-05-06T09:17:09.212Z,10.00
2023-05-06T09:20:16.068Z,8.90
2023-05-06T09:23:23.671Z,9.20
2023-05-06T09:26:31.925Z,9.80
2023-05-06T09:29:39.438Z,10.80
2023-05-06T09:32:46.927Z,9.60
2023-05-06T09:35:55.614Z,7.80
2023-05-06T09:39:02.873Z,8.50
2023-05-06T09:42:10.463Z,8.70
2023-05-06T09:45:18.884Z,9.20
2023-05-06T09:48:25.724Z,9.40
2023-05-06T09:51:32.958Z,10.40
2023-05-06T09:54:41.640Z,8.20
2023-05-06T09:57:48.983Z,7.70
2023-05-06T10:00:56.402Z,9.90
2023-05-06T10:04:04.037Z,8.40
2023-05-06T10:07:12.997Z,6.80
2023-05-06T10:10:20.817Z,7.20
2023-05-06T10:13:28.059Z,7.70
2023-05-06T10:16:36.724Z,8.30
2023-05-06T10:19:44.092Z,7.40
2023-05-06T10:22:51.203Z,7.80
2023-05-06T10:25:59.814Z,8.10
2023-05-06T10:29:07.062Z,10.70
2023-05-06T10:32:14.227Z,8.60
2023-05-06T10:35:22.959Z,7.90
2023-05-06T10:38:30.837Z,8.20
2023-05-06T10:41:37.879Z,6.20
2023-05-06T10:44:46.201Z,8.20
2023-05-06T10:47:55.027Z,7.10
2023-05-06T10:51:02.261Z,7.40
2023-05-06T10:54:09.907Z,9.30
2023-05-06T10:57:18.603Z,7.10
2023-05-06T11:00:25.982Z,7.30
2023-05-06T11:03:33.573Z,7.30
2023-05-06T11:06:42.387Z,7.50
2023-05-06T11:09:49.871Z,5.40
2023-05-06T11:12:56.843Z,5.20
2023-05-06T11:16:05.835Z,6.80
2023-05-06T11:19:13.614Z,6.80
2023-05-06T11:22:20.680Z,6.40
2023-05-06T11:25:29.742Z,4.90
2023-05-06T11:28:37.035Z,5.50
2023-05-06T11:31:44.238Z,5.80
2023-05-06T11:34:52.029Z,5.90
2023-05-06T11:38:00.402Z,5.60
2023-05-06T11:41:08.699Z,4.40
2023-05-06T11:44:17.141Z,6.10
2023-05-06T11:47:25.898Z,6.30
2023-05-06T11:50:33.648Z,4.10
2023-05-06T11:53:41.400Z,5.20
2023-05-06T11:56:50.078Z,6.30
2023-05-06T11:59:57.250Z,4.70
2023-05-06T12:03:04.502Z,6.30
2023-05-06T12:06:13.553Z,4.50
2023-05-06T12:09:21.011Z,5.10
2023-05-06T12:12:28.256Z,3.80
2023-05-06T12:15:35.752Z,4.20
2023-05-06T12:18:44.441Z,4.40
2023-05-06T12:21:51.911Z,5.30
2023-05-06T12:24:59.545Z,5.20
2023-05-06T12:28:07.945Z,6.60
2023-05-06T12:31:15.610Z,5.80
2023-05-06T12:34:23.224Z,7.20
2023-05-06T12:37:31.644Z,5.50
2023-05-06T12:40:39.423Z,5.60
2023-05-06T12:43:47.376Z,6.10
2023-05-06T12:46:55.825Z,6.50
2023-05-06T12:50:03.495Z,5.30
2023-05-06T12:53:10.544Z,5.80
2023-05-06T12:56:17.805Z,6.60
2023-05-06T12:59:26.445Z,5.60
2023-05-06T13:02:33.603Z,6.30
2023-05-06T13:05:40.615Z,6.70
2023-05-06T13:08:49.484Z,6.30
2023-05-06T13:11:56.941Z,6.50
2023-05-06T13:15:04.281Z,5.60
2023-05-06T13:18:13.098Z,5.70
2023-05-06T13:21:21.003Z,6.30
2023-05-06T13:24:28.353Z,5.90
2023-05-06T13:27:37.096Z,6.20
2023-05-06T13:30:44.768Z,4.40
2023-05-06T13:33:51.853Z,5.00
2023-05-06T13:36:59.258Z,5.90
2023-05-06T13:40:08.361Z,6.20
2023-05-06T13:43:15.453Z,4.60
2023-05-06T13:46:23.303Z,7.70
2023-05-06T13:49:32.821Z,13.40
2023-05-06T13:52:39.964Z,10.90
2023-05-06T13:55:47.898Z,8.20
2023-05-06T13:58:56.491Z,9.20
2023-05-06T14:02:05.565Z,11.70
2023-05-06T14:05:04.236Z,12.10
2023-05-06T14:08:12.844Z,9.60
2023-05-06T14:11:19.979Z,9.80
2023-05-06T14:14:27.817Z,9.50
2023-05-06T14:17:35.350Z,10.00
2023-05-06T14:20:43.819Z,12.40
2023-05-06T14:23:51.030Z,8.60
2023-05-06T14:26:58.628Z,10.10
2023-05-06T14:30:09.371Z,9.60
2023-05-06T14:33:18.239Z,10.50
2023-05-06T14:36:25.132Z,12.90
2023-05-06T14:39:34.389Z,11.60
2023-05-06T14:42:41.730Z,13.60
2023-05-06T14:45:49.893Z,10.10
2023-05-06T14:46:33.489Z,9.10
2023-05-06T14:49:42.515Z,9.90
2023-05-06T14:52:50.361Z,11.70
2023-05-06T14:55:58.489Z,10.00
2023-05-06T14:59:06.918Z,9.80
2023-05-06T15:02:14.424Z,10.70
2023-05-06T15:05:22.038Z,11.30
2023-05-06T15:08:30.893Z,12.40
2023-05-06T15:11:38.867Z,10.80
2023-05-06T15:14:48.276Z,15.00
2023-05-06T15:17:57.087Z,12.70
2023-05-06T15:21:07.100Z,15.90
2023-05-06T15:24:15.504Z,11.40
2023-05-06T15:27:23.424Z,13.80
2023-05-06T15:30:32.099Z,12.90
2023-05-06T15:35:28.255Z,12.30
2023-05-06T15:38:24.640Z,11.90
2023-05-06T15:41:34.478Z,11.90
2023-05-06T15:44:41.404Z,13.20
2023-05-06T15:47:49.497Z,14.20
2023-05-06T15:50:58.805Z,12.70
2023-05-06T15:54:06.540Z,12.60
2023-05-06T15:57:14.884Z,12.20
2023-05-06T16:00:24.805Z,14.60
2023-05-06T16:03:32.049Z,13.70
2023-05-06T16:06:39.357Z,14.70
2023-05-06T16:09:48.917Z,13.40
2023-05-06T16:12:56.913Z,11.70
2023-05-06T16:16:04.561Z,11.70
2023-05-06T16:19:12.077Z,15.40
2023-05-06T16:22:21.719Z,12.30
2023-05-06T16:25:29.205Z,11.30
2023-05-06T16:28:39.401Z,10.00
2023-05-06T16:31:38.644Z,9.10
2023-05-06T16:34:46.304Z,8.90
2023-05-06T16:37:53.590Z,10.90
2023-05-06T16:41:03.548Z,11.60
2023-05-06T16:44:12.506Z,11.90
2023-05-06T16:47:20.968Z,11.80
2023-05-06T16:50:29.917Z,12.80
2023-05-06T16:53:37.543Z,10.20
2023-05-06T16:56:51.987Z,12.50
2023-05-06T16:59:49.011Z,13.00
2023-05-06T17:02:58.019Z,12.50
2023-05-06T17:06:05.741Z,12.50
2023-05-06T17:09:13.475Z,12.00
2023-05-06T17:12:22.402Z,12.20
2023-05-06T17:15:30.070Z,13.10
2023-05-06T17:18:38.537Z,13.00
2023-05-06T17:21:47.170Z,13.40
2023-05-06T17:24:54.922Z,16.60
2023-05-06T17:28:02.336Z,14.90
2023-05-06T17:31:11.438Z,14.50
2023-05-06T17:34:19.166Z,13.80
2023-05-06T17:37:27.916Z,13.10
2023-05-06T17:40:37.488Z,12.60
2023-05-06T17:43:45.364Z,13.90
2023-05-06T17:46:53.393Z,14.40
2023-05-06T17:50:01.127Z,15.50
2023-05-06T17:53:11.123Z,14.20
2023-05-06T17:56:18.482Z,16.70
2023-05-06T17:59:28.217Z,17.30
2023-05-06T18:02:37.879Z,21.60
2023-05-06T18:05:45.646Z,18.70
2023-05-06T18:08:53.193Z,19.30
2023-05-06T18:12:02.261Z,19.10
2023-05-06T18:15:09.830Z,20.10
2023-05-06T18:18:17.811Z,21.10
2023-05-06T18:21:27.320Z,21.70
2023-05-06T18:24:35.288Z,21.40
2023-05-06T18:27:43.161Z,20.20
2023-05-06T18:30:50.967Z,19.30
2023-05-06T18:33:59.944Z,20.40
2023-05-06T18:37:07.477Z,20.00
2023-05-06T18:40:15.262Z,21.80
2023-05-06T18:43:24.427Z,21.20
2023-05-06T18:46:32.544Z,19.30
2023-05-06T18:49:39.730Z,20.70
2023-05-06T18:52:49.696Z,21.90
2023-05-06T18:55:57.170Z,22.10
2023-05-06T18:59:05.266Z,19.30
2023-05-06T19:02:14.541Z,20.80
2023-05-06T19:05:22.396Z,24.20
2023-05-06T19:08:30.398Z,21.70
2023-05-06T19:11:39.377Z,22.60
2023-05-06T19:14:46.742Z,25.60
2023-05-06T19:17:54.184Z,20.90
2023-05-06T19:21:02.501Z,20.60
2023-05-06T19:24:12.181Z,22.00
2023-05-06T19:27:20.992Z,21.80
2023-05-06T19:30:28.302Z,20.80
2023-05-06T19:33:37.638Z,19.90
2023-05-06T19:36:45.514Z,24.40
2023-05-06T19:39:54.036Z,20.90
2023-05-06T19:40:37.282Z,23.60
2023-05-06T19:43:46.712Z,22.20
2023-05-06T19:46:54.564Z,26.20
2023-05-06T19:50:02.118Z,23.20
2023-05-06T19:53:11.054Z,18.20
2023-05-06T19:56:18.883Z,22.10
2023-05-06T19:59:26.848Z,22.30
2023-05-06T20:02:35.297Z,21.40
2023-05-06T20:05:43.842Z,20.90
2023-05-06T20:08:51.477Z,21.20
2023-05-06T20:11:59.073Z,20.20
2023-05-06T20:15:08.760Z,21.70
2023-05-06T20:18:16.035Z,22.10
2023-05-06T20:21:23.640Z,22.60
2023-05-06T20:24:33.160Z,20.00
2023-05-06T20:27:40.702Z,21.10
2023-05-06T20:30:48.237Z,19.00
2023-05-06T20:33:57.335Z,17.20
2023-05-06T20:37:04.830Z,18.30
2023-05-06T20:40:12.313Z,19.60
2023-05-06T20:43:21.445Z,20.10
2023-05-06T20:46:29.086Z,18.10
2023-05-06T20:49:36.239Z,20.10
2023-05-06T20:52:44.072Z,20.90
2023-05-06T20:55:52.863Z,17.60
2023-05-06T20:59:00.152Z,18.20
2023-05-06T21:02:07.978Z,17.90
2023-05-06T21:05:17.276Z,18.60
2023-05-06T21:08:24.968Z,17.00
2023-05-06T21:11:32.889Z,16.70
2023-05-06T21:14:41.604Z,17.50
2023-05-06T21:17:49.311Z,17.90
2023-05-06T21:20:56.301Z,18.40
2023-05-06T21:24:05.248Z,17.30
2023-05-06T21:27:13.544Z,19.00
2023-05-06T21:30:21.656Z,19.90
2023-05-06T21:33:30.019Z,17.00
2023-05-06T21:36:37.873Z,19.00
2023-05-06T21:39:45.569Z,19.40
2023-05-06T21:42:53.159Z,17.90
2023-05-06T21:46:02.530Z,21.00
2023-05-06T21:49:10.342Z,18.60
2023-05-06T21:52:17.617Z,18.00
2023-05-06T21:55:26.344Z,19.50
2023-05-06T21:58:34.591Z,19.10
2023-05-06T22:01:41.728Z,20.10
2023-05-06T22:04:50.683Z,23.10
2023-05-06T22:07:58.307Z,21.80
2023-05-06T22:11:05.474Z,23.70
2023-05-06T22:14:14.616Z,21.60
2023-05-06T22:17:22.287Z,25.90
2023-05-06T22:20:30.001Z,26.10
2023-05-06T22:23:37.975Z,24.80
2023-05-06T22:26:46.891Z,27.30
2023-05-06T22:29:54.459Z,26.80
2023-05-06T22:33:01.840Z,25.80
2023-05-06T22:36:10.491Z,24.00
2023-05-06T22:39:18.249Z,24.20
2023-05-06T22:42:25.514Z,23.00
2023-05-06T22:45:34.194Z,25.90
2023-05-06T22:48:41.907Z,21.00
2023-05-06T22:51:50.020Z,24.20
2023-05-06T22:54:58.810Z,22.20
2023-05-06T22:58:06.780Z,23.90
2023-05-06T23:01:15.036Z,25.30
2023-05-06T23:04:22.044Z,26.10
2023-05-06T23:07:31.019Z,24.10
2023-05-06T23:10:38.423Z,24.10
2023-05-06T23:13:45.915Z,27.60
2023-05-06T23:16:54.736Z,27.60
2023-05-06T23:20:03.240Z,26.90
2023-05-06T23:23:10.597Z,25.50
2023-05-06T23:26:19.902Z,28.30
2023-05-06T23:29:27.821Z,28.90
2023-05-06T23:32:34.804Z,28.30
2023-05-06T23:35:43.980Z,28.10
2023-05-06T23:38:52.120Z,30.90
2023-05-06T23:41:59.509Z,30.10
2023-05-06T23:45:09.331Z,28.90
2023-05-06T23:48:17.631Z,32.80
2023-05-06T23:51:25.557Z,30.20
2023-05-06T23:54:33.174Z,32.40
2023-05-06T23:57:41.789Z,29.50
